Terminal Aerodrome Forecast
Issued by NWS

Home | Current Version | Previous Version | Text Only | Print | Product List | Glossary On
Versions: 1 2 3 4 5 6 7 8 9 10 11 12 13 14 15 16 17 18 19 20 21 22
654
FTUS43 KIND 231120
TAFLAF
TAF
KLAF 231120Z 2312/2412 35009KT 3SM BR OVC003
     FM231700 35010G18KT 5SM BR OVC008
     FM232100 34010KT 5SM BR OVC010
     FM240400 33006KT 5SM BR BKN015
     FM241000 32004KT 4SM BR BKN015
      AMD LTD TO CLD VIS AND WIND TIL 231400=

USA.gov is the U.S. government's official web portal to all federal, state and local government web resources and services.